CheckWX is a tool to help pilots better visualize weather data.  It is not intended as a substitute for an official pre-flight weather briefing.

23:33:54 UTC

CYBG TAF
CFB Bagotville Airport
Bagotville, Canada
TAF AMD CYBG 182116Z 1821/1918 29015KT P6SM SCT015 OVC030 TEMPO 1821/1823 5SM -SHRA BR FEW010 BKN015 OVC030 FM182300 28015KT P6SM SCT015 OVC030 TEMPO 1823/1909 BKN015 OVC030 FM190900 28012KT P6SM BKN025 RMK NXT FCST BY 190000Z

Oct-18@
21:00 UTC

Oct-18 @ 21:00 UTC

Oct-18@
23:00 UTC

Oct-18 @ 23:00 UTC

TAF AMD CYBG 182116Z 1821/1918 29015KT P6SM SCT015 OVC030

Expired

Wind
  • 290° at 15 KTS
Cloud Levels
  • Scattered at 1,500' AGL
  • Overcast at 3,000' AGL

Oct-18@
21:00 UTC

Oct-18 @ 21:00 UTC

Oct-18@
23:00 UTC

Oct-18 @ 23:00 UTC

TEMPO 1821/1823 5SM -SHRA BR FEW010 BKN015 OVC030

Expired

Conditions
Light Rain, Mist
Cloud Levels
  • Few at 1,000' AGL
  • Broken at 1,500' AGL
  • Overcast at 3,000' AGL

Oct-18@
23:00 UTC

Oct-18 @ 23:00 UTC

Oct-19@
09:00 UTC

Oct-19 @ 09:00 UTC

TEMPO 1823/1909 BKN015 OVC030

Temporary

Temporary Changes expected for less than half the time period

Cloud Levels
  • Broken at 1,500' AGL
  • Overcast at 3,000' AGL

Oct-18@
23:00 UTC

Oct-18 @ 23:00 UTC

Oct-19@
09:00 UTC

Oct-19 @ 09:00 UTC

FM182300 28015KT P6SM SCT015 OVC030

From

From Standard forecast or significant change

Wind
  • 280° at 15 KTS
Cloud Levels
  • Scattered at 1,500' AGL
  • Overcast at 3,000' AGL

Oct-19@
09:00 UTC

Oct-19 @ 09:00 UTC

Oct-19@
18:00 UTC

Oct-19 @ 18:00 UTC

FM190900 28012KT P6SM BKN025 RMK NXT FCST BY 190000Z

From

From Standard forecast or significant change

Wind
  • 280° at 12 KTS
Cloud Levels
  • Broken at 2,500' AGL